イエローナイフ の空港の天気 - METARとTAF

イエローナイフ空港 ( CYZF / YZF ) - カナダ ノースウエスト準州イエローナイフ
飛行場実況気象(Metar)
観測時間05/26 16:00 MDT (05/26 22:00 UTC)
風向・風速北北東 2m/s
視程10km以上
天気現象
少しの雲 雲底高度 1520m
少しの雲 雲底高度 6100m
気温10℃
湿度43%
気圧1013.4hPa
METARCYZF 262200Z 03003KT 350V080 15SM FEW050 FEW200 10/M02 A2989 RMK SC1CI1 SC TR CI TR SLP134
過去の天気等 Google飛行場航空写真 Wunderground天気予報

過去48時間のMETAR

飛行場予報(TAF)
発表時間: 5/26 11:38 MDT (5/26 17:38 UTC)
予報対象時間: 26日12時 MDT ~ 27日12時 MDT
風向・風速東北東 5m/s
視程10km以上
少しの雲 雲底高度 7320m
TAF CYZF 261738Z 2618/2718 07010KT P6SM FEW240 RMK NXT FCST BY 270000Z